METAR Data
IDs: Format: Raw Decoded Include TAF

Data at: 0331 UTC 19 Oct 2021

KCDH 190315Z AUTO 00000KT 10SM CLR 11/11 A3012 RMK AO2
KCDH 190255Z AUTO 00000KT 10SM CLR 11/11 A3012 RMK AO2
KCDH 190235Z AUTO 00000KT 10SM CLR 11/11 A3012 RMK AO2
KCDH 190215Z AUTO 00000KT 10SM CLR 11/11 A3012 RMK AO2
KCDH 190155Z AUTO 00000KT 10SM CLR 11/11 A3011 RMK AO2
KCDH 190135Z AUTO 00000KT 10SM CLR 12/12 A3011 RMK AO2
KCDH 190115Z AUTO 00000KT 10SM CLR 12/12 A3011 RMK AO2
KCDH 190055Z AUTO 00000KT 10SM CLR 13/11 A3010 RMK AO2
KCDH 190035Z AUTO 00000KT 10SM CLR 14/12 A3010 RMK AO2
KCDH 190015Z AUTO 00000KT 10SM CLR 14/12 A3010 RMK AO2
KCDH 182355Z AUTO 00000KT 10SM CLR 15/12 A3009 RMK AO2
KCDH 182335Z AUTO 00000KT 10SM CLR 17/12 A3009 RMK AO2
KCDH 182315Z AUTO 00000KT 10SM CLR 20/11 A3009 RMK AO2
KCDH 182255Z AUTO 00000KT 9SM CLR 21/08 A3009 RMK AO2
KCDH 182235Z AUTO 00000KT 10SM CLR 22/07 A3009 RMK AO2
KCDH 182215Z AUTO 14005KT 9SM CLR 23/07 A3009 RMK AO2
KCDH 182155Z AUTO VRB05KT 9SM CLR 23/07 A3010 RMK AO2
KCDH 182135Z AUTO 13005KT 9SM CLR 23/06 A3010 RMK AO2
KCDH 182115Z AUTO 13006KT 9SM CLR 24/07 A3011 RMK AO2
KCDH 182055Z AUTO VRB04G10KT 10SM CLR 24/07 A3011 RMK AO2
KCDH 182035Z AUTO 17006KT 10SM CLR 24/07 A3012 RMK AO2
KCDH 182015Z AUTO 00000KT 10SM CLR 24/07 A3013 RMK AO2
KCDH 181955Z AUTO VRB03KT 9SM CLR 24/07 A3014 RMK AO2
KCDH 181935Z AUTO 16006KT 9SM CLR 24/06 A3014 RMK AO2
KCDH 181915Z AUTO VRB05G11KT 9SM CLR 24/07 A3015 RMK AO2
KCDH 181855Z AUTO 00000KT 10SM CLR 24/07 A3016 RMK AO2
KCDH 181835Z AUTO 17005KT 9SM CLR 24/07 A3017 RMK AO2
KCDH 181815Z AUTO VRB04KT 10SM CLR 23/06 A3018 RMK AO2
KCDH 181755Z AUTO 00000KT 10SM CLR 23/07 A3019 RMK AO2
KCDH 181735Z AUTO 00000KT 9SM CLR 22/07 A3020 RMK AO2
KCDH 181715Z AUTO 14004KT 10SM CLR 22/08 A3021 RMK AO2
KCDH 181655Z AUTO 15003KT 10SM CLR 20/08 A3022 RMK AO2
KCDH 181635Z AUTO 12004KT 10SM CLR 20/09 A3023 RMK AO2
KCDH 181615Z AUTO 15005KT 10SM -DZ CLR 19/08 A3024 RMK AO2
KCDH 181555Z AUTO 17004KT 9SM CLR 20/10 A3023 RMK AO2
KCDH 181535Z AUTO 17005KT 9SM CLR 19/10 A3024 RMK AO2
KCDH 181515Z AUTO 16004KT 10SM CLR 17/10 A3024 RMK AO2
KCDH 181455Z AUTO 15003KT 10SM CLR 17/11 A3024 RMK AO2
KCDH 181435Z AUTO 00000KT 10SM CLR 14/10 A3024 RMK AO2
KCDH 181415Z AUTO 00000KT 10SM CLR 13/11 A3024 RMK AO2
KCDH 181335Z AUTO 00000KT 9SM CLR 09/09 A3023 RMK AO2
KCDH 181315Z AUTO 00000KT 10SM CLR 08/08 A3022 RMK AO2
KCDH 181255Z AUTO 00000KT 5SM BR CLR 07/07 A3021 RMK AO2
KCDH 181235Z AUTO 00000KT 9SM CLR 07/07 A3021 RMK AO2
KCDH 181215Z AUTO 00000KT 10SM CLR 07/07 A3021 RMK AO2
KCDH 181155Z AUTO 00000KT 10SM CLR 07/07 A3021 RMK AO2
KCDH 181135Z AUTO 00000KT 10SM CLR 07/07 A3021 RMK AO2
KCDH 181115Z AUTO 00000KT 9SM FEW037 07/07 A3021 RMK AO2
KCDH 181055Z AUTO 00000KT 9SM FEW037 07/07 A3021 RMK AO2
KCDH 181035Z AUTO 00000KT 10SM CLR 08/08 A3020 RMK AO2
KCDH 181015Z AUTO 00000KT 8SM CLR 08/08 A3020 RMK AO2
KCDH 180955Z AUTO 00000KT 10SM CLR 08/08 A3020 RMK AO2
KCDH 180935Z AUTO 00000KT 6SM BR CLR 08/08 A3019 RMK AO2
KCDH 180915Z AUTO 00000KT 1 3/4SM BR CLR 08/08 A3019 RMK AO2 VIS 1/2V5
KCDH 180855Z AUTO 00000KT 8SM CLR 08/08 A3019 RMK AO2
KCDH 180835Z AUTO 00000KT 7SM CLR 08/08 A3019 RMK AO2
KCDH 180815Z AUTO 00000KT 3SM BR CLR 08/08 A3019 RMK AO2
KCDH 180755Z AUTO 00000KT 10SM CLR 08/08 A3019 RMK AO2
KCDH 180735Z AUTO 00000KT 6SM BR CLR 08/08 A3019 RMK AO2
KCDH 180715Z AUTO 00000KT 10SM CLR 08/08 A3020 RMK AO2
KCDH 180655Z AUTO 00000KT 10SM CLR 08/08 A3020 RMK AO2
KCDH 180635Z AUTO 00000KT 9SM CLR 09/09 A3020 RMK AO2
KCDH 180615Z AUTO 00000KT 10SM CLR 09/09 A3020 RMK AO2
KCDH 180555Z AUTO 00000KT 10SM CLR 09/09 A3021 RMK AO2
KCDH 180535Z AUTO 00000KT 10SM CLR 09/09 A3021 RMK AO2
KCDH 180515Z AUTO 00000KT 4SM BR CLR 09/09 A3021 RMK AO2
KCDH 180455Z AUTO 00000KT 10SM CLR 09/09 A3021 RMK AO2
KCDH 180435Z AUTO 00000KT 10SM CLR 10/10 A3022 RMK AO2
KCDH 180415Z AUTO 00000KT 10SM CLR 10/10 A3022 RMK AO2
KCDH 180355Z AUTO 00000KT 10SM CLR 10/10 A3022 RMK AO2
KCDH 180335Z AUTO 00000KT 10SM CLR 10/10 A3023 RMK AO2
KCDH 180315Z AUTO 00000KT 10SM CLR 10/10 A3023 RMK AO2
KCDH 180255Z AUTO 00000KT 10SM CLR 10/10 A3023 RMK AO2
KCDH 180235Z AUTO 00000KT 10SM CLR 11/11 A3022 RMK AO2
KCDH 180215Z AUTO 00000KT 10SM CLR 11/11 A3022 RMK AO2
KCDH 180155Z AUTO 00000KT 10SM CLR 11/11 A3022 RMK AO2
KCDH 180135Z AUTO 00000KT 10SM CLR 12/12 A3021 RMK AO2
KCDH 180115Z AUTO 00000KT 10SM CLR 12/12 A3021 RMK AO2
KCDH 180055Z AUTO 00000KT 10SM CLR 12/12 A3021 RMK AO2
KCDH 180035Z AUTO 00000KT 10SM CLR 13/12 A3021 RMK AO2
KCDH 180015Z AUTO 00000KT 10SM CLR 14/12 A3021 RMK AO2
KCDH 172355Z AUTO 00000KT 10SM CLR 15/12 A3021 RMK AO2
KCDH 172335Z AUTO 00000KT 10SM CLR 16/12 A3021 RMK AO2
KCDH 172315Z AUTO 00000KT 10SM CLR 18/12 A3021 RMK AO2
KCDH 172255Z AUTO 00000KT 10SM CLR 20/11 A3021 RMK AO2
KCDH 172235Z AUTO 00000KT 10SM CLR 21/09 A3021 RMK AO2
KCDH 172215Z AUTO 00000KT 10SM CLR 23/05 A3021 RMK AO2
KCDH 172155Z AUTO 00000KT 10SM CLR 23/06 A3021 RMK AO2
KCDH 172135Z AUTO 00000KT 9SM CLR 23/05 A3021 RMK AO2
KCDH 172115Z AUTO 00000KT 9SM CLR 24/05 A3022 RMK AO2
KCDH 172055Z AUTO 03003KT 9SM CLR 23/05 A3023 RMK AO2
KCDH 172035Z AUTO VRB05KT 10SM CLR 23/06 A3023 RMK AO2
KCDH 172015Z AUTO 00000KT 10SM CLR 24/05 A3024 RMK AO2
KCDH 171955Z AUTO VRB04KT 10SM CLR 24/06 A3025 RMK AO2
KCDH 171935Z AUTO 33004KT 10SM CLR 23/06 A3025 RMK AO2
KCDH 171915Z AUTO 03004G12KT 10SM CLR 24/06 A3026 RMK AO2
KCDH 171855Z AUTO 00000KT 10SM CLR 24/06 A3027 RMK AO2
KCDH 171835Z AUTO 00000KT 10SM CLR 24/06 A3028 RMK AO2
KCDH 171815Z AUTO 00000KT 9SM CLR 23/05 A3029 RMK AO2
KCDH 171755Z AUTO VRB03KT 10SM CLR 24/06 A3031 RMK AO2
KCDH 171735Z AUTO 00000KT 10SM CLR 22/06 A3032 RMK AO2
KCDH 171715Z AUTO 00000KT 10SM CLR 22/05 A3033 RMK AO2
KCDH 171655Z AUTO 00000KT 9SM CLR 22/05 A3034 RMK AO2
KCDH 171635Z AUTO 00000KT 9SM CLR 21/07 A3034 RMK AO2
KCDH 171615Z AUTO 00000KT 9SM CLR 20/08 A3034 RMK AO2
KCDH 171555Z AUTO 00000KT 10SM CLR 19/09 A3034 RMK AO2
KCDH 171535Z AUTO 00000KT 9SM CLR 17/10 A3034 RMK AO2